createdAt,value
2018-01-05T00:00:10.028Z,80.89
2018-01-05T00:01:09.942Z,81.29
2018-01-05T00:02:09.991Z,80.97
2018-01-05T00:03:09.946Z,81.05
2018-01-05T00:04:09.943Z,80.29
2018-01-05T00:05:10.012Z,80.33
2018-01-05T00:06:10.084Z,80.89
2018-01-05T00:07:10.020Z,79.94
2018-01-05T00:08:10.061Z,80.60
2018-01-05T00:09:10.013Z,80.57
2018-01-05T00:10:10.084Z,80.65
2018-01-05T00:11:10.020Z,80.94
2018-01-05T00:12:10.089Z,79.49
2018-01-05T00:13:10.018Z,80.57
2018-01-05T00:14:10.088Z,81.34
2018-01-05T00:15:10.025Z,79.81
2018-01-05T00:16:10.112Z,78.89
2018-01-05T00:17:10.089Z,78.07
2018-01-05T00:18:10.018Z,78.33
2018-01-05T00:19:10.101Z,78.36
2018-01-05T00:20:10.092Z,78.36
2018-01-05T00:21:10.025Z,77.31
2018-01-05T00:22:10.092Z,75.62
2018-01-05T00:23:10.036Z,76.52
2018-01-05T00:24:10.028Z,74.71
2018-01-05T00:25:09.958Z,72.56
2018-01-05T00:26:10.043Z,72.46
2018-01-05T00:27:10.006Z,73.30
2018-01-05T00:28:09.999Z,73.08
2018-01-05T00:29:10.043Z,73.85
2018-01-05T00:30:10.045Z,72.98
2018-01-05T00:31:10.090Z,71.94
2018-01-05T00:32:10.091Z,71.67
2018-01-05T00:33:10.002Z,72.64
2018-01-05T00:34:10.026Z,73.01
2018-01-05T00:35:10.034Z,74.66
2018-01-05T00:36:10.034Z,74.21
2018-01-05T00:37:10.031Z,74.18
2018-01-05T00:38:10.107Z,74.87
2018-01-05T00:39:10.032Z,74.52
2018-01-05T00:40:10.038Z,73.87
2018-01-05T00:41:10.037Z,73.06
2018-01-05T00:42:10.112Z,73.87
2018-01-05T00:43:10.042Z,73.74
2018-01-05T00:44:10.036Z,74.29
2018-01-05T00:45:10.037Z,74.32
2018-01-05T00:46:10.106Z,75.68
2018-01-05T00:47:10.035Z,75.78
2018-01-05T00:48:10.109Z,75.34
2018-01-05T00:49:10.108Z,75.18
2018-01-05T00:50:10.037Z,74.68
2018-01-05T00:51:10.110Z,73.63
2018-01-05T00:52:10.132Z,73.95
2018-01-05T00:53:10.110Z,73.95
2018-01-05T00:54:10.047Z,74.18
2018-01-05T00:55:10.100Z,74.05
2018-01-05T00:56:10.082Z,74.29
2018-01-05T00:57:10.081Z,73.87
2018-01-05T00:58:10.063Z,75.07
2018-01-05T00:59:10.046Z,74.29
2018-01-05T01:00:10.083Z,74.68
2018-01-05T01:01:10.103Z,75.47
2018-01-05T01:02:10.014Z,76.07
2018-01-05T01:03:10.019Z,76.15
2018-01-05T01:04:10.136Z,74.42
2018-01-05T01:05:10.113Z,75.70
2018-01-05T01:06:10.062Z,75.62
2018-01-05T01:07:10.014Z,75.07
2018-01-05T01:08:10.020Z,74.71
2018-01-05T01:09:09.966Z,75.26
2018-01-05T01:10:10.065Z,74.26
2018-01-05T01:11:10.013Z,75.62
2018-01-05T01:12:10.019Z,74.44
2018-01-05T01:13:10.067Z,73.79
2018-01-05T01:14:09.973Z,73.69
2018-01-05T01:15:10.066Z,73.16
2018-01-05T01:16:10.029Z,72.20
2018-01-05T01:17:10.032Z,73.58
2018-01-05T01:18:10.117Z,73.16
2018-01-05T01:19:10.116Z,72.46
2018-01-05T01:20:10.113Z,72.61
2018-01-05T01:21:10.062Z,71.54
2018-01-05T01:22:10.011Z,71.73
2018-01-05T01:23:10.033Z,72.80
2018-01-05T01:24:10.123Z,72.46
2018-01-05T01:25:10.031Z,71.15
2018-01-05T01:26:10.089Z,72.38
2018-01-05T01:27:10.026Z,71.60
2018-01-05T01:28:10.030Z,71.57
2018-01-05T01:29:09.999Z,71.67
2018-01-05T01:30:10.138Z,71.31
2018-01-05T01:31:09.998Z,70.17
2018-01-05T01:32:10.020Z,71.07
2018-01-05T01:33:10.006Z,69.88
2018-01-05T01:34:09.992Z,70.40
2018-01-05T01:35:10.027Z,69.93
2018-01-05T01:36:10.084Z,70.04
2018-01-05T01:37:10.022Z,69.88
2018-01-05T01:38:10.041Z,69.96
2018-01-05T01:39:10.067Z,71.07
2018-01-05T01:40:10.088Z,70.76
2018-01-05T01:41:10.127Z,71.44
2018-01-05T01:42:10.109Z,71.00
2018-01-05T01:43:10.157Z,71.42
2018-01-05T01:44:10.136Z,71.62
2018-01-05T01:45:10.068Z,70.95
2018-01-05T01:46:10.068Z,71.07
2018-01-05T01:47:10.053Z,71.42
2018-01-05T01:48:10.130Z,70.74
2018-01-05T01:49:10.035Z,71.91
2018-01-05T01:50:10.130Z,71.57
2018-01-05T01:51:10.106Z,70.89
2018-01-05T01:52:10.035Z,72.41
2018-01-05T01:53:10.111Z,73.16
2018-01-05T01:54:10.020Z,73.01
2018-01-05T01:55:10.052Z,72.67
2018-01-05T01:56:10.084Z,73.42
2018-01-05T01:57:10.210Z,73.63
2018-01-05T01:58:10.150Z,73.08
2018-01-05T01:59:10.126Z,72.59
2018-01-05T02:00:10.083Z,73.58
2018-01-05T02:01:10.116Z,73.87
2018-01-05T02:02:10.081Z,73.32
2018-01-05T02:03:10.151Z,73.66
2018-01-05T02:04:10.089Z,73.95
2018-01-05T02:05:10.084Z,73.53
2018-01-05T02:06:10.121Z,73.82
2018-01-05T02:07:10.142Z,73.87
2018-01-05T02:08:10.142Z,74.36
2018-01-05T02:09:10.103Z,73.16
2018-01-05T02:10:10.086Z,73.14
2018-01-05T02:11:10.125Z,72.38
2018-01-05T02:12:10.125Z,72.93
2018-01-05T02:13:10.050Z,73.27
2018-01-05T02:14:10.127Z,72.43
2018-01-05T02:15:10.040Z,73.24
2018-01-05T02:16:10.091Z,72.67
2018-01-05T02:17:10.164Z,72.93
2018-01-05T02:18:10.099Z,72.67
2018-01-05T02:19:10.096Z,72.53
2018-01-05T02:20:10.176Z,73.16
2018-01-05T02:21:10.098Z,73.32
2018-01-05T02:22:10.109Z,72.80
2018-01-05T02:23:10.099Z,72.98
2018-01-05T02:24:10.167Z,73.16
2018-01-05T02:25:10.100Z,72.09
2018-01-05T02:26:10.102Z,73.89
2018-01-05T02:27:10.167Z,72.53
2018-01-05T02:28:10.171Z,72.67
2018-01-05T02:29:10.104Z,71.89
2018-01-05T02:30:10.168Z,71.91
2018-01-05T02:31:10.105Z,71.91
2018-01-05T02:32:10.174Z,72.20
2018-01-05T02:33:10.108Z,71.65
2018-01-05T02:34:10.170Z,72.43
2018-01-05T02:35:10.105Z,72.69
2018-01-05T02:36:10.173Z,71.23
2018-01-05T02:37:10.098Z,70.79
2018-01-05T02:38:10.108Z,71.34
2018-01-05T02:39:10.180Z,71.70
2018-01-05T02:40:10.106Z,72.07
2018-01-05T02:41:10.176Z,71.65
2018-01-05T02:42:10.108Z,72.38
2018-01-05T02:43:10.177Z,71.47
2018-01-05T02:44:10.176Z,71.57
2018-01-05T02:45:10.117Z,72.28
2018-01-05T02:46:10.124Z,72.04
2018-01-05T02:47:10.062Z,71.81
2018-01-05T02:48:10.174Z,72.85
2018-01-05T02:49:10.115Z,71.96
2018-01-05T02:50:10.148Z,73.06
2018-01-05T02:51:10.115Z,71.54
2018-01-05T02:52:10.085Z,72.17
2018-01-05T02:53:10.143Z,72.14
2018-01-05T02:54:10.133Z,73.16
2018-01-05T02:55:10.110Z,72.85
2018-01-05T02:56:10.206Z,73.35
2018-01-05T02:57:10.121Z,72.46
2018-01-05T02:58:10.120Z,73.53
2018-01-05T02:59:10.187Z,73.82
2018-01-05T03:00:10.122Z,73.93
2018-01-05T03:01:10.188Z,75.39
2018-01-05T03:02:10.122Z,74.16
2018-01-05T03:03:10.196Z,74.81
2018-01-05T03:04:10.125Z,75.49
2018-01-05T03:05:10.190Z,74.66
2018-01-05T03:06:10.124Z,75.18
2018-01-05T03:07:10.192Z,75.41
2018-01-05T03:08:10.126Z,74.97
2018-01-05T03:09:10.193Z,74.99
2018-01-05T03:10:10.128Z,75.02
2018-01-05T03:11:10.196Z,74.84
2018-01-05T03:12:10.124Z,75.10
2018-01-05T03:13:10.203Z,75.55
2018-01-05T03:14:10.127Z,75.52
2018-01-05T03:15:10.199Z,75.62
2018-01-05T03:16:10.196Z,76.20
2018-01-05T03:17:10.100Z,75.89
2018-01-05T03:18:10.203Z,75.78
2018-01-05T03:19:10.132Z,76.12
2018-01-05T03:20:10.168Z,75.86
2018-01-05T03:21:10.145Z,75.84
2018-01-05T03:22:10.191Z,75.57
2018-01-05T03:23:10.131Z,75.55
2018-01-05T03:24:10.080Z,75.76
2018-01-05T03:25:10.201Z,75.76
2018-01-05T03:26:10.132Z,75.78
2018-01-05T03:27:10.205Z,75.23
2018-01-05T03:28:10.142Z,75.44
2018-01-05T03:29:10.293Z,75.68
2018-01-05T03:30:10.209Z,75.81
2018-01-05T03:31:10.142Z,75.94
2018-01-05T03:32:10.170Z,75.84
2018-01-05T03:33:10.205Z,75.84
2018-01-05T03:34:10.135Z,76.15
2018-01-05T03:35:10.207Z,75.89
2018-01-05T03:36:10.138Z,75.55
2018-01-05T03:37:10.213Z,75.84
2018-01-05T03:38:10.147Z,75.52
2018-01-05T03:39:10.216Z,75.41
2018-01-05T03:40:10.146Z,75.05
2018-01-05T03:41:10.212Z,74.79
2018-01-05T03:42:10.144Z,74.55
2018-01-05T03:43:10.212Z,74.66
2018-01-05T03:44:10.147Z,74.89
2018-01-05T03:45:10.214Z,74.32
2018-01-05T03:46:10.145Z,74.55
2018-01-05T03:47:10.217Z,74.24
2018-01-05T03:48:10.151Z,74.63
2018-01-05T03:49:10.147Z,73.77
2018-01-05T03:50:10.220Z,73.69
2018-01-05T03:51:10.149Z,74.26
2018-01-05T03:52:10.221Z,74.73
2018-01-05T03:53:10.173Z,74.71
2018-01-05T03:54:10.219Z,75.21
2018-01-05T03:55:10.153Z,74.71
2018-01-05T03:56:10.167Z,74.24
2018-01-05T03:57:10.169Z,73.79
2018-01-05T03:58:10.169Z,74.08
2018-01-05T03:59:10.117Z,74.00
2018-01-05T04:00:10.167Z,74.52
2018-01-05T04:01:10.121Z,74.08
2018-01-05T04:02:10.168Z,74.26
2018-01-05T04:03:10.174Z,74.00
2018-01-05T04:04:10.172Z,74.18
2018-01-05T04:05:10.176Z,74.11
2018-01-05T04:06:10.158Z,74.34
2018-01-05T04:07:10.228Z,74.60
2018-01-05T04:08:10.226Z,74.52
2018-01-05T04:09:10.231Z,74.55
2018-01-05T04:10:10.125Z,74.40
2018-01-05T04:11:10.177Z,74.47
2018-01-05T04:12:10.163Z,74.63
2018-01-05T04:13:10.231Z,74.97
2018-01-05T04:14:10.162Z,74.71
2018-01-05T04:15:10.239Z,74.73
2018-01-05T04:16:10.168Z,75.02
2018-01-05T04:17:10.233Z,74.66
2018-01-05T04:18:10.166Z,75.07
2018-01-05T04:19:10.235Z,74.84
2018-01-05T04:20:10.240Z,74.97
2018-01-05T04:21:10.173Z,74.58
2018-01-05T04:22:10.237Z,75.23
2018-01-05T04:23:10.171Z,75.18
2018-01-05T04:24:10.236Z,75.23
2018-01-05T04:25:10.169Z,75.23
2018-01-05T04:26:10.245Z,75.55
2018-01-05T04:27:10.168Z,75.29
2018-01-05T04:28:10.241Z,75.81
2018-01-05T04:29:10.172Z,75.49
2018-01-05T04:30:10.242Z,74.84
2018-01-05T04:31:10.174Z,74.13
2018-01-05T04:32:10.243Z,73.35
2018-01-05T04:33:10.175Z,71.03
2018-01-05T04:34:10.247Z,71.34
2018-01-05T04:35:10.191Z,71.03
2018-01-05T04:36:10.246Z,70.74
2018-01-05T04:37:10.249Z,69.23
2018-01-05T04:38:10.176Z,69.41
2018-01-05T04:39:10.249Z,69.20
2018-01-05T04:40:10.182Z,69.96
2018-01-05T04:41:10.249Z,70.11
2018-01-05T04:42:10.250Z,70.56
2018-01-05T04:43:10.182Z,71.13
2018-01-05T04:44:10.272Z,72.46
2018-01-05T04:45:10.186Z,73.06
2018-01-05T04:46:10.252Z,74.21
2018-01-05T04:47:10.258Z,74.29
2018-01-05T04:48:10.187Z,74.63
2018-01-05T04:49:10.254Z,74.08
2018-01-05T04:50:10.190Z,74.66
2018-01-05T04:51:10.253Z,75.18
2018-01-05T04:52:10.194Z,75.60
2018-01-05T04:53:10.190Z,76.12
2018-01-05T04:54:10.262Z,75.89
2018-01-05T04:55:10.189Z,76.26
2018-01-05T04:56:10.187Z,75.23
2018-01-05T04:57:10.138Z,75.10
2018-01-05T04:58:10.192Z,75.05
2018-01-05T04:59:10.263Z,76.20
2018-01-05T05:00:10.265Z,76.62
2018-01-05T05:01:10.191Z,76.02
2018-01-05T05:02:10.191Z,76.15
2018-01-05T05:03:10.194Z,76.57
2018-01-05T05:04:10.253Z,76.36
2018-01-05T05:05:10.192Z,76.67
2018-01-05T05:06:10.483Z,77.04
2018-01-05T05:07:10.201Z,79.31
2018-01-05T05:08:10.265Z,78.20
2018-01-05T05:09:10.267Z,78.12
2018-01-05T05:10:10.202Z,78.05
2018-01-05T05:11:10.267Z,77.89
2018-01-05T05:12:10.266Z,77.39
2018-01-05T05:13:10.267Z,77.33
2018-01-05T05:14:10.204Z,77.81
2018-01-05T05:15:10.267Z,79.39
2018-01-05T05:16:10.137Z,79.28
2018-01-05T05:17:10.231Z,79.65
2018-01-05T05:18:10.161Z,80.18
2018-01-05T05:19:10.160Z,79.79
2018-01-05T05:20:10.172Z,79.39
2018-01-05T05:21:10.194Z,79.36
2018-01-05T05:22:10.159Z,79.75
2018-01-05T05:23:10.224Z,79.68
2018-01-05T05:24:10.139Z,79.44
2018-01-05T05:25:10.196Z,79.28
2018-01-05T05:26:10.278Z,79.63
2018-01-05T05:27:10.229Z,79.41
2018-01-05T05:28:10.235Z,79.36
2018-01-05T05:29:10.209Z,79.57
2018-01-05T05:30:10.209Z,79.02
2018-01-05T05:31:10.279Z,79.10
2018-01-05T05:32:10.216Z,79.10
2018-01-05T05:33:10.279Z,79.71
2018-01-05T05:34:10.231Z,79.60
2018-01-05T05:35:10.280Z,79.71
2018-01-05T05:36:10.215Z,79.97
2018-01-05T05:37:10.282Z,80.07
2018-01-05T05:38:10.256Z,80.15
2018-01-05T05:39:10.213Z,80.36
2018-01-05T05:40:10.284Z,79.71
2018-01-05T05:41:10.262Z,79.39
2018-01-05T05:42:10.215Z,79.73
2018-01-05T05:43:10.286Z,80.31
2018-01-05T05:44:10.223Z,81.26
2018-01-05T05:45:10.286Z,81.90
2018-01-05T05:46:10.227Z,82.51
2018-01-05T05:47:10.240Z,84.84
2018-01-05T05:48:10.190Z,84.05
2018-01-05T05:49:10.281Z,85.19
2018-01-05T05:50:10.240Z,85.88
2018-01-05T05:51:10.258Z,86.49
2018-01-05T05:52:10.284Z,87.45
2018-01-05T05:53:10.289Z,87.18
2018-01-05T05:54:10.292Z,87.32
2018-01-05T05:55:10.195Z,86.65
2018-01-05T05:56:10.293Z,88.54
2018-01-05T05:57:10.296Z,89.29
2018-01-05T05:58:10.225Z,89.08
2018-01-05T05:59:10.296Z,89.08
2018-01-05T06:00:10.258Z,89.97
2018-01-05T06:01:10.231Z,90.05
2018-01-05T06:02:10.297Z,90.47
2018-01-05T06:03:10.296Z,90.63
2018-01-05T06:04:10.298Z,90.58
2018-01-05T06:05:10.237Z,91.14
2018-01-05T06:06:10.232Z,91.38
2018-01-05T06:07:10.228Z,90.42
2018-01-05T06:08:10.232Z,90.13
2018-01-05T06:09:10.252Z,90.61
2018-01-05T06:10:10.232Z,89.91
2018-01-05T06:11:10.195Z,90.23
2018-01-05T06:12:10.187Z,90.55
2018-01-05T06:13:10.257Z,90.63
2018-01-05T06:14:10.200Z,90.74
2018-01-05T06:15:10.259Z,90.23
2018-01-05T06:16:10.244Z,90.13
2018-01-05T06:17:10.307Z,90.42
2018-01-05T06:18:10.240Z,90.45
2018-01-05T06:19:10.309Z,89.83
2018-01-05T06:20:10.310Z,89.27
2018-01-05T06:21:10.248Z,89.32
2018-01-05T06:22:10.249Z,89.83
2018-01-05T06:23:10.310Z,89.67
2018-01-05T06:24:10.241Z,89.56
2018-01-05T06:25:10.314Z,89.56
2018-01-05T06:26:10.210Z,89.56
2018-01-05T06:27:10.214Z,89.56
2018-01-05T06:28:10.279Z,89.56
2018-01-05T06:29:10.311Z,89.56
2018-01-05T06:30:10.277Z,89.56
2018-01-05T06:31:10.243Z,89.56
2018-01-05T06:32:10.306Z,89.56
2018-01-05T06:33:10.217Z,89.56
2018-01-05T06:34:10.214Z,89.56
2018-01-05T06:35:10.283Z,89.56
2018-01-05T06:36:10.213Z,89.56
2018-01-05T06:37:10.177Z,89.56
2018-01-05T06:38:10.310Z,89.56
2018-01-05T06:39:10.185Z,89.56
2018-01-05T06:40:10.245Z,89.56
2018-01-05T06:41:10.216Z,89.56
2018-01-05T06:42:10.286Z,89.56
2018-01-05T06:43:10.309Z,89.56
2018-01-05T06:44:10.253Z,89.56
2018-01-05T06:45:10.269Z,89.56
2018-01-05T06:46:10.328Z,89.56
2018-01-05T06:47:10.322Z,89.56
2018-01-05T06:48:10.270Z,89.56
2018-01-05T06:49:10.326Z,89.56
2018-01-05T06:50:10.264Z,89.56
2018-01-05T06:51:10.260Z,89.56
2018-01-05T06:52:10.327Z,89.56
2018-01-05T06:53:10.256Z,89.56
2018-01-05T06:54:10.326Z,89.56
2018-01-05T06:55:10.328Z,89.56
2018-01-05T06:56:10.340Z,89.56
2018-01-05T06:57:10.260Z,89.56
2018-01-05T06:58:10.330Z,89.56
2018-01-05T06:59:10.267Z,89.56
2018-01-05T07:00:10.333Z,89.56
2018-01-05T07:01:10.271Z,89.56
2018-01-05T07:02:10.333Z,89.56
2018-01-05T07:03:10.266Z,89.56
2018-01-05T07:04:10.332Z,89.56
2018-01-05T07:05:10.360Z,89.56
2018-01-05T07:06:10.336Z,91.79
2018-01-05T07:07:10.337Z,91.82
2018-01-05T07:08:10.270Z,91.79
2018-01-05T07:09:10.344Z,91.86
2018-01-05T07:10:10.265Z,91.97
2018-01-05T07:11:10.302Z,92.11
2018-01-05T07:12:10.342Z,92.46
2018-01-05T07:13:10.338Z,92.70
2018-01-05T07:14:10.293Z,92.57
2018-01-05T07:15:10.340Z,92.51
2018-01-05T07:16:10.404Z,92.59
2018-01-05T07:17:10.343Z,92.73
2018-01-05T07:18:10.309Z,92.97
2018-01-05T07:19:10.346Z,93.16
2018-01-05T07:20:10.273Z,93.21
2018-01-05T07:21:10.348Z,93.24
2018-01-05T07:22:10.279Z,93.24
2018-01-05T07:23:10.345Z,93.29
2018-01-05T07:24:10.277Z,93.59
2018-01-05T07:25:10.345Z,93.54
2018-01-05T07:26:10.247Z,93.51
2018-01-05T07:27:10.294Z,93.45
2018-01-05T07:28:10.214Z,93.40
2018-01-05T07:29:10.335Z,93.54
2018-01-05T07:30:10.346Z,93.75
2018-01-05T07:31:10.248Z,93.81
2018-01-05T07:32:10.250Z,94.10
2018-01-05T07:33:10.236Z,93.94
2018-01-05T07:34:10.238Z,93.96
2018-01-05T07:35:10.341Z,94.07
2018-01-05T07:36:10.316Z,94.12
2018-01-05T07:37:10.322Z,94.26
2018-01-05T07:38:10.322Z,94.29
2018-01-05T07:39:10.239Z,94.23
2018-01-05T07:40:10.321Z,94.26
2018-01-05T07:41:10.242Z,94.12
2018-01-05T07:42:10.264Z,93.89
2018-01-05T07:43:10.221Z,93.81
2018-01-05T07:44:10.357Z,93.67
2018-01-05T07:45:10.244Z,93.54
2018-01-05T07:46:10.226Z,93.26
2018-01-05T07:47:10.319Z,92.81
2018-01-05T07:48:10.271Z,92.51
2018-01-05T07:49:10.293Z,92.54
2018-01-05T07:50:10.249Z,92.51
2018-01-05T07:51:10.222Z,92.49
2018-01-05T07:52:10.324Z,92.57
2018-01-05T07:53:10.293Z,92.43
2018-01-05T07:54:10.293Z,92.57
2018-01-05T07:55:10.351Z,92.59
2018-01-05T07:56:10.334Z,92.57
2018-01-05T07:57:10.365Z,92.40
2018-01-05T07:58:10.294Z,92.08
2018-01-05T07:59:10.366Z,91.90
2018-01-05T08:00:10.518Z,91.95
2018-01-05T08:01:10.296Z,91.90
2018-01-05T08:02:10.368Z,91.52
2018-01-05T08:03:10.296Z,91.52
2018-01-05T08:04:10.273Z,91.79
2018-01-05T08:05:10.300Z,91.71
2018-01-05T08:06:10.368Z,91.86
2018-01-05T08:07:10.369Z,91.97
2018-01-05T08:08:10.298Z,92.03
2018-01-05T08:09:10.299Z,91.92
2018-01-05T08:10:10.371Z,91.95
2018-01-05T08:11:10.298Z,91.71
2018-01-05T08:12:10.374Z,91.57
2018-01-05T08:13:10.304Z,91.86
2018-01-05T08:14:10.374Z,91.82
2018-01-05T08:15:10.300Z,91.92
2018-01-05T08:16:10.300Z,92.01
2018-01-05T08:17:10.305Z,91.55
2018-01-05T08:18:10.263Z,91.01
2018-01-05T08:19:10.310Z,90.96
2018-01-05T08:20:10.376Z,90.88
2018-01-05T08:21:10.379Z,91.20
2018-01-05T08:22:10.345Z,91.01
2018-01-05T08:23:10.377Z,90.69
2018-01-05T08:24:10.309Z,90.98
2018-01-05T08:25:10.383Z,90.63
2018-01-05T08:26:10.382Z,90.53
2018-01-05T08:27:10.311Z,90.34
2018-01-05T08:28:10.384Z,90.36
2018-01-05T08:29:10.306Z,90.39
2018-01-05T08:30:10.384Z,90.55
2018-01-05T08:31:10.307Z,90.42
2018-01-05T08:32:10.317Z,90.28
2018-01-05T08:33:10.388Z,90.42
2018-01-05T08:34:10.316Z,90.42
2018-01-05T08:35:10.391Z,90.34
2018-01-05T08:36:10.317Z,90.34
2018-01-05T08:37:10.241Z,90.47
2018-01-05T08:38:10.245Z,90.23
2018-01-05T08:39:10.241Z,90.20
2018-01-05T08:40:10.286Z,90.45
2018-01-05T08:41:10.290Z,90.31
2018-01-05T08:42:10.340Z,90.09
2018-01-05T08:43:10.285Z,89.97
2018-01-05T08:44:10.291Z,89.75
2018-01-05T08:45:10.342Z,89.45
2018-01-05T08:46:10.384Z,89.19
2018-01-05T08:47:10.402Z,89.40
2018-01-05T08:48:10.396Z,89.45
2018-01-05T08:49:10.329Z,89.35
2018-01-05T08:50:10.396Z,88.92
2018-01-05T08:51:10.332Z,88.20
2018-01-05T08:52:10.399Z,87.85
2018-01-05T08:53:10.330Z,87.61
2018-01-05T08:54:10.405Z,87.82
2018-01-05T08:55:10.400Z,88.09
2018-01-05T08:56:10.403Z,87.37
2018-01-05T08:57:10.304Z,87.37
2018-01-05T08:58:10.403Z,88.28
2018-01-05T08:59:10.334Z,88.12
2018-01-05T09:00:10.305Z,88.41
2018-01-05T09:01:10.357Z,88.39
2018-01-05T09:02:10.404Z,88.46
2018-01-05T09:03:10.311Z,89.06
2018-01-05T09:04:10.290Z,89.19
2018-01-05T09:05:10.399Z,89.51
2018-01-05T09:06:10.278Z,89.80
2018-01-05T09:07:10.335Z,90.07
2018-01-05T09:08:10.410Z,90.15
2018-01-05T09:09:10.337Z,90.15
2018-01-05T09:10:10.411Z,90.05
2018-01-05T09:11:10.411Z,89.91
2018-01-05T09:12:10.339Z,89.08
2018-01-05T09:13:10.417Z,88.73
2018-01-05T09:14:10.337Z,88.73
2018-01-05T09:15:10.441Z,88.57
2018-01-05T09:16:10.410Z,87.69
2018-01-05T09:17:10.414Z,85.77
2018-01-05T09:18:10.341Z,85.35
2018-01-05T09:19:10.413Z,84.02
2018-01-05T09:20:10.343Z,83.57
2018-01-05T09:21:10.418Z,83.33
2018-01-05T09:22:10.342Z,82.93
2018-01-05T09:23:10.340Z,82.19
2018-01-05T09:24:10.345Z,82.06
2018-01-05T09:25:10.347Z,81.71
2018-01-05T09:26:10.419Z,81.08
2018-01-05T09:27:10.290Z,80.97
2018-01-05T09:28:10.361Z,81.13
2018-01-05T09:29:10.361Z,80.92
2018-01-05T09:30:10.357Z,80.89
2018-01-05T09:31:10.310Z,81.34
2018-01-05T09:32:10.273Z,82.16
2018-01-05T09:33:10.322Z,82.24
2018-01-05T09:34:10.272Z,81.45
2018-01-05T09:35:10.362Z,82.27
2018-01-05T09:36:10.312Z,83.14
2018-01-05T09:37:10.413Z,82.43
2018-01-05T09:38:10.410Z,82.51
2018-01-05T09:39:10.322Z,83.30
2018-01-05T09:40:10.428Z,83.14
2018-01-05T09:41:10.396Z,82.85
2018-01-05T09:42:10.388Z,82.67
2018-01-05T09:43:10.331Z,83.38
2018-01-05T09:44:10.308Z,83.12
2018-01-05T09:45:10.375Z,83.67
2018-01-05T09:46:10.331Z,83.38
2018-01-05T09:47:10.430Z,84.09
2018-01-05T09:48:10.357Z,84.87
2018-01-05T09:49:10.431Z,85.00
2018-01-05T09:50:10.362Z,85.48
2018-01-05T09:51:10.362Z,85.72
2018-01-05T09:52:10.434Z,86.25
2018-01-05T09:53:10.363Z,87.00
2018-01-05T09:54:10.434Z,87.34
2018-01-05T09:55:10.364Z,87.37
2018-01-05T09:56:10.436Z,87.59
2018-01-05T09:57:10.360Z,87.67
2018-01-05T09:58:10.319Z,87.21
2018-01-05T09:59:10.400Z,87.45
2018-01-05T10:00:10.368Z,87.88
2018-01-05T10:01:10.423Z,87.85
2018-01-05T10:02:10.343Z,88.36
2018-01-05T10:03:10.437Z,89.03
2018-01-05T10:04:10.320Z,88.76
2018-01-05T10:05:10.363Z,89.03
2018-01-05T10:06:10.343Z,89.19
2018-01-05T10:07:10.370Z,89.43
2018-01-05T10:08:10.442Z,89.70
2018-01-05T10:09:10.420Z,89.91
2018-01-05T10:10:10.452Z,89.11
2018-01-05T10:11:10.373Z,88.89
2018-01-05T10:12:10.446Z,89.08
2018-01-05T10:13:10.377Z,88.33
2018-01-05T10:14:10.380Z,88.62
2018-01-05T10:15:10.450Z,88.57
2018-01-05T10:16:10.375Z,88.68
2018-01-05T10:17:10.450Z,88.62
2018-01-05T10:18:10.378Z,88.87
2018-01-05T10:19:10.377Z,88.84
2018-01-05T10:20:10.383Z,88.23
2018-01-05T10:21:10.451Z,88.60
2018-01-05T10:22:10.382Z,88.87
2018-01-05T10:23:10.454Z,88.41
2018-01-05T10:24:10.384Z,87.93
2018-01-05T10:25:10.454Z,87.72
2018-01-05T10:26:10.384Z,87.80
2018-01-05T10:27:10.454Z,87.18
2018-01-05T10:28:10.385Z,87.26
2018-01-05T10:29:10.383Z,87.96
2018-01-05T10:30:10.458Z,87.18
2018-01-05T10:31:10.384Z,86.97
2018-01-05T10:32:10.392Z,86.94
2018-01-05T10:33:10.458Z,86.79
2018-01-05T10:34:10.390Z,86.52
2018-01-05T10:35:10.464Z,85.93
2018-01-05T10:36:10.395Z,86.28
2018-01-05T10:37:10.462Z,86.36
2018-01-05T10:38:10.392Z,86.15
2018-01-05T10:39:10.462Z,85.32
2018-01-05T10:40:10.392Z,84.44
2018-01-05T10:41:10.465Z,84.60
2018-01-05T10:42:10.390Z,85.30
2018-01-05T10:43:10.466Z,85.13
2018-01-05T10:44:10.394Z,85.00
2018-01-05T10:45:10.392Z,84.97
2018-01-05T10:46:10.469Z,84.02
2018-01-05T10:47:10.397Z,83.73
2018-01-05T10:48:10.467Z,82.96
2018-01-05T10:49:10.350Z,82.19
2018-01-05T10:50:10.437Z,81.56
2018-01-05T10:51:10.400Z,81.08
2018-01-05T10:52:10.472Z,80.89
2018-01-05T10:53:10.472Z,81.26
2018-01-05T10:54:10.397Z,81.84
2018-01-05T10:55:10.472Z,81.87
2018-01-05T10:56:10.470Z,81.13
2018-01-05T10:57:10.398Z,81.16
2018-01-05T10:58:10.478Z,81.50
2018-01-05T10:59:10.403Z,81.32
2018-01-05T11:00:10.475Z,80.23
2018-01-05T11:01:10.405Z,80.39
2018-01-05T11:02:10.475Z,80.41
2018-01-05T11:03:10.405Z,80.31
2018-01-05T11:04:10.480Z,80.47
2018-01-05T11:05:10.422Z,79.81
2018-01-05T11:06:10.480Z,78.75
2018-01-05T11:07:10.392Z,80.05
2018-01-05T11:08:10.423Z,79.02
2018-01-05T11:10:10.478Z,78.12
2018-01-05T11:11:10.388Z,77.51
2018-01-05T11:12:10.381Z,78.01
2018-01-05T11:13:10.405Z,76.34
2018-01-05T11:14:10.434Z,77.91
2018-01-05T11:15:10.340Z,75.70
2018-01-05T11:16:10.409Z,75.62
2018-01-05T11:17:10.351Z,74.68
2018-01-05T11:18:10.441Z,75.68
2018-01-05T11:19:10.429Z,76.12
2018-01-05T11:20:10.373Z,74.81
2018-01-05T11:21:10.374Z,75.39
2018-01-05T11:22:10.445Z,75.07
2018-01-05T11:23:10.374Z,74.08
2018-01-05T11:24:10.449Z,74.58
2018-01-05T11:25:10.374Z,73.69
2018-01-05T11:26:10.343Z,74.18
2018-01-05T11:27:10.493Z,73.55
2018-01-05T11:28:10.436Z,74.84
2018-01-05T11:29:10.422Z,76.73
2018-01-05T11:30:10.493Z,74.47
2018-01-05T11:31:10.420Z,74.66
2018-01-05T11:32:10.496Z,73.69
2018-01-05T11:33:10.428Z,73.32
2018-01-05T11:34:10.495Z,73.16
2018-01-05T11:35:10.424Z,73.74
2018-01-05T11:36:10.498Z,73.93
2018-01-05T11:37:10.429Z,74.24
2018-01-05T11:38:10.584Z,73.45
2018-01-05T11:39:10.500Z,73.50
2018-01-05T11:40:10.425Z,72.67
2018-01-05T11:41:10.500Z,72.01
2018-01-05T11:42:10.427Z,72.98
2018-01-05T11:43:10.502Z,73.42
2018-01-05T11:44:10.450Z,74.81
2018-01-05T11:45:10.429Z,73.85
2018-01-05T11:46:10.502Z,72.93
2018-01-05T11:47:10.387Z,73.42
2018-01-05T11:48:10.358Z,73.19
2018-01-05T11:49:10.396Z,73.53
2018-01-05T11:50:10.361Z,74.40
2018-01-05T11:51:10.411Z,73.77
2018-01-05T11:52:10.363Z,73.01
2018-01-05T11:53:10.453Z,72.30
2018-01-05T11:54:10.433Z,73.40
2018-01-05T11:55:10.361Z,73.89
2018-01-05T11:56:10.396Z,72.67
2018-01-05T11:57:10.472Z,72.04
2018-01-05T11:58:10.468Z,72.72
2018-01-05T11:59:10.471Z,72.43
2018-01-05T12:00:10.394Z,72.67
2018-01-05T12:01:10.364Z,72.72
2018-01-05T12:02:10.464Z,72.33
2018-01-05T12:03:10.415Z,72.28
2018-01-05T12:04:10.397Z,71.57
2018-01-05T12:05:10.399Z,71.91
2018-01-05T12:06:10.474Z,71.78
2018-01-05T12:07:10.510Z,71.89
2018-01-05T12:08:10.399Z,71.47
2018-01-05T12:09:10.422Z,71.42
2018-01-05T12:10:10.382Z,72.56
2018-01-05T12:11:10.379Z,71.78
2018-01-05T12:12:10.503Z,71.42
2018-01-05T12:13:10.441Z,72.12
2018-01-05T12:14:10.484Z,72.09
2018-01-05T12:15:10.405Z,72.61
2018-01-05T12:16:10.508Z,72.12
2018-01-05T12:17:10.345Z,71.81
2018-01-05T12:18:10.416Z,71.36
2018-01-05T12:19:10.462Z,72.85
2018-01-05T12:20:10.374Z,71.34
2018-01-05T12:21:10.351Z,71.83
2018-01-05T12:22:10.519Z,71.47
2018-01-05T12:23:10.472Z,72.90
2018-01-05T12:24:10.348Z,72.72
2018-01-05T12:25:10.351Z,72.88
2018-01-05T12:26:10.465Z,72.51
2018-01-05T12:27:10.529Z,71.65
2018-01-05T12:28:10.452Z,70.68
2018-01-05T12:29:10.531Z,71.23
2018-01-05T12:30:10.457Z,71.83
2018-01-05T12:31:10.567Z,73.27
2018-01-05T12:32:10.464Z,72.67
2018-01-05T12:33:10.531Z,71.83
2018-01-05T12:34:10.459Z,71.05
2018-01-05T12:35:10.618Z,71.52
2018-01-05T12:36:10.533Z,72.41
2018-01-05T12:37:10.554Z,72.14
2018-01-05T12:38:10.518Z,72.59
2018-01-05T12:39:10.410Z,73.16
2018-01-05T12:40:10.479Z,72.53
2018-01-05T12:41:10.427Z,72.12
2018-01-05T12:42:10.498Z,72.43
2018-01-05T12:43:10.448Z,73.14
2018-01-05T12:44:10.537Z,74.34
2018-01-05T12:45:10.500Z,73.63
2018-01-05T12:46:10.480Z,72.43
2018-01-05T12:47:10.538Z,72.17
2018-01-05T12:48:10.472Z,72.12
2018-01-05T12:49:10.540Z,72.43
2018-01-05T12:50:10.467Z,72.64
2018-01-05T12:51:10.544Z,70.45
2018-01-05T12:52:10.469Z,72.28
2018-01-05T12:53:10.543Z,73.11